createdAt,value
2022-08-19T00:01:18.071Z,22.10
2022-08-19T00:05:12.414Z,22.10
2022-08-19T00:08:54.543Z,22.00
2022-08-19T00:12:37.449Z,22.00
2022-08-19T00:16:29.194Z,22.00
2022-08-19T00:20:13.538Z,22.00
2022-08-19T00:23:59.268Z,22.00
2022-08-19T00:27:41.952Z,21.90
2022-08-19T00:31:24.020Z,21.90
2022-08-19T00:35:06.292Z,21.90
2022-08-19T00:38:48.375Z,21.90
2022-08-19T00:42:30.314Z,21.90
2022-08-19T00:46:12.171Z,21.90
2022-08-19T00:49:59.453Z,21.80
2022-08-19T00:53:41.692Z,21.80
2022-08-19T00:57:31.100Z,21.80
2022-08-19T01:01:15.145Z,21.80
2022-08-19T01:04:57.340Z,21.80
2022-08-19T01:08:39.192Z,21.80
2022-08-19T01:12:22.487Z,21.70
2022-08-19T01:16:09.944Z,21.70
2022-08-19T01:19:53.393Z,21.70
2022-08-19T01:23:44.051Z,21.70
2022-08-19T01:27:25.950Z,21.60
2022-08-19T01:31:26.452Z,21.60
2022-08-19T01:35:10.495Z,21.50
2022-08-19T01:38:52.425Z,21.40
2022-08-19T01:42:34.415Z,21.40
2022-08-19T01:46:16.308Z,21.40
2022-08-19T01:49:59.751Z,21.30
2022-08-19T01:53:42.757Z,21.30
2022-08-19T01:57:24.671Z,21.30
2022-08-19T02:01:07.462Z,21.30
2022-08-19T02:04:49.673Z,21.20
2022-08-19T02:08:33.071Z,21.20
2022-08-19T02:12:15.574Z,21.10
2022-08-19T02:15:57.481Z,21.00
2022-08-19T02:19:39.598Z,20.90
2022-08-19T02:23:23.047Z,20.90
2022-08-19T02:27:05.914Z,20.90
2022-08-19T02:30:48.595Z,20.90
2022-08-19T02:34:30.444Z,20.90
2022-08-19T02:38:27.426Z,20.80
2022-08-19T02:42:09.276Z,20.70
2022-08-19T02:45:52.305Z,20.70
2022-08-19T02:49:34.885Z,20.70
2022-08-19T02:53:16.828Z,20.70
2022-08-19T02:56:58.733Z,20.70
2022-08-19T03:00:50.221Z,20.70
2022-08-19T03:04:32.081Z,20.70
2022-08-19T03:08:14.601Z,20.70
2022-08-19T03:11:56.839Z,20.70
2022-08-19T03:15:43.395Z,20.70
2022-08-19T03:19:25.479Z,20.60
2022-08-19T03:23:07.397Z,20.60
2022-08-19T03:26:52.859Z,20.50
2022-08-19T03:30:35.212Z,20.50
2022-08-19T03:34:27.622Z,20.40
2022-08-19T03:38:09.495Z,20.40
2022-08-19T03:42:31.862Z,20.40
2022-08-19T03:46:02.224Z,20.30
2022-08-19T03:49:44.514Z,20.30
2022-08-19T03:53:28.756Z,20.30
2022-08-19T03:57:10.640Z,20.30
2022-08-19T04:00:52.588Z,20.30
2022-08-19T04:04:34.458Z,20.20
2022-08-19T04:08:19.972Z,20.20
2022-08-19T04:12:01.812Z,20.20
2022-08-19T04:15:45.942Z,20.20
2022-08-19T04:19:30.488Z,20.20
2022-08-19T04:23:13.903Z,20.10
2022-08-19T04:26:55.771Z,20.20
2022-08-19T04:30:45.869Z,20.10
2022-08-19T04:34:29.716Z,20.20
2022-08-19T04:38:12.187Z,20.20
2022-08-19T04:42:12.464Z,20.10
2022-08-19T04:45:56.473Z,20.10
2022-08-19T04:49:42.820Z,20.10
2022-08-19T04:53:37.713Z,20.10
2022-08-19T04:57:19.936Z,20.00
2022-08-19T05:01:01.855Z,20.00
2022-08-19T05:04:43.768Z,19.90
2022-08-19T05:08:31.172Z,20.00
2022-08-19T05:12:13.823Z,20.00
2022-08-19T05:15:58.215Z,19.90
2022-08-19T05:19:59.792Z,19.90
2022-08-19T05:23:42.147Z,19.80
2022-08-19T05:27:23.989Z,19.90
2022-08-19T05:31:05.931Z,19.80
2022-08-19T05:34:47.747Z,19.80
2022-08-19T05:38:31.036Z,19.80
2022-08-19T05:42:14.138Z,19.80
2022-08-19T05:45:56.209Z,19.80
2022-08-19T05:49:38.683Z,19.70
2022-08-19T05:53:20.656Z,19.70
2022-08-19T05:57:03.401Z,19.70
2022-08-19T06:00:46.143Z,19.60
2022-08-19T06:04:28.011Z,19.60
2022-08-19T06:08:09.831Z,19.60
2022-08-19T06:11:56.074Z,19.60
2022-08-19T06:15:38.041Z,19.60
2022-08-19T06:19:23.255Z,19.50
2022-08-19T06:23:05.207Z,19.50
2022-08-19T06:30:31.146Z,19.40
2022-08-19T06:34:13.582Z,19.40
2022-08-19T06:37:55.579Z,19.30
2022-08-19T06:41:47.314Z,19.30
2022-08-19T06:45:34.585Z,19.20
2022-08-19T06:49:18.553Z,19.20
2022-08-19T06:53:01.423Z,19.20
2022-08-19T06:56:46.846Z,19.20
2022-08-19T07:00:28.884Z,19.20
2022-08-19T07:04:12.147Z,19.20
2022-08-19T07:07:54.223Z,19.30
2022-08-19T07:11:44.864Z,19.30
2022-08-19T07:15:26.580Z,19.50
2022-08-19T07:19:12.540Z,19.70
2022-08-19T07:22:58.065Z,19.70
2022-08-19T07:26:42.372Z,19.80
2022-08-19T07:30:26.209Z,19.80
2022-08-19T07:34:09.936Z,19.90
2022-08-19T07:37:51.807Z,19.90
2022-08-19T07:41:35.236Z,19.90
2022-08-19T07:45:17.274Z,19.80
2022-08-19T07:48:59.902Z,19.80
2022-08-19T07:52:41.808Z,19.80
2022-08-19T07:56:24.327Z,19.70
2022-08-19T08:00:07.328Z,19.70
2022-08-19T08:04:09.408Z,19.60
2022-08-19T08:08:09.911Z,19.60
2022-08-19T08:12:02.006Z,19.50
2022-08-19T08:15:46.728Z,19.50
2022-08-19T08:19:29.764Z,19.50
2022-08-19T08:23:24.339Z,19.40
2022-08-19T08:27:11.211Z,19.40
2022-08-19T08:30:53.386Z,19.50
2022-08-19T08:34:35.280Z,19.50
2022-08-19T08:38:18.800Z,19.50
2022-08-19T08:42:20.583Z,19.50
2022-08-19T08:46:39.113Z,19.60
2022-08-19T08:50:37.268Z,19.60
2022-08-19T08:54:25.504Z,19.60
2022-08-19T08:58:16.859Z,19.60
2022-08-19T09:01:59.100Z,19.70
2022-08-19T09:06:04.387Z,19.70
2022-08-19T09:09:55.997Z,19.70
2022-08-19T09:14:35.034Z,19.80
2022-08-19T09:18:19.107Z,19.80
2022-08-19T09:22:01.634Z,19.80
2022-08-19T09:25:43.633Z,19.80
2022-08-19T09:29:25.592Z,19.90
2022-08-19T09:33:08.113Z,20.00
2022-08-19T09:36:54.677Z,20.10
2022-08-19T09:40:38.552Z,20.20
2022-08-19T09:44:24.230Z,20.40
2022-08-19T09:48:09.389Z,20.60
2022-08-19T09:51:53.076Z,20.90
2022-08-19T09:55:34.870Z,21.50
2022-08-19T09:59:16.802Z,22.40
2022-08-19T10:02:58.967Z,23.30
2022-08-19T10:06:45.901Z,23.80
2022-08-19T10:10:28.523Z,24.40
2022-08-19T10:14:10.771Z,24.60
2022-08-19T10:17:55.385Z,24.90
2022-08-19T10:21:37.856Z,25.20
2022-08-19T10:25:22.378Z,25.80
2022-08-19T10:29:06.273Z,26.70
2022-08-19T10:32:51.192Z,27.70
2022-08-19T10:36:36.291Z,28.70
2022-08-19T10:40:37.578Z,29.60
2022-08-19T10:44:20.559Z,30.50
2022-08-19T10:48:02.373Z,31.00
2022-08-19T10:52:03.298Z,31.50
2022-08-19T10:56:04.284Z,32.10
2022-08-19T10:59:46.233Z,32.90
2022-08-19T11:03:32.059Z,32.90
2022-08-19T11:07:13.850Z,32.40
2022-08-19T11:10:58.510Z,31.60
2022-08-19T11:14:41.158Z,30.70
2022-08-19T11:18:22.956Z,29.80
2022-08-19T11:22:04.823Z,29.00
2022-08-19T11:25:47.359Z,28.50
2022-08-19T11:29:30.134Z,28.50
2022-08-19T11:33:12.402Z,28.90
2022-08-19T11:36:55.559Z,29.80
2022-08-19T11:40:37.429Z,31.00
2022-08-19T11:44:19.383Z,32.20
2022-08-19T11:48:01.791Z,33.20
2022-08-19T11:51:44.291Z,34.10
2022-08-19T11:55:26.208Z,34.90
2022-08-19T11:59:12.789Z,35.30
2022-08-19T12:02:56.352Z,35.70
2022-08-19T12:06:40.531Z,36.00
2022-08-19T12:10:26.289Z,36.00
2022-08-19T12:14:14.712Z,36.10
2022-08-19T12:17:58.500Z,36.20
2022-08-19T12:21:40.703Z,36.40
2022-08-19T12:25:22.693Z,35.90
2022-08-19T12:29:05.641Z,35.30
2022-08-19T12:32:47.527Z,35.30
2022-08-19T12:36:29.627Z,35.60
2022-08-19T12:40:13.019Z,36.00
2022-08-19T12:43:54.939Z,36.20
2022-08-19T12:47:38.815Z,35.70
2022-08-19T12:51:23.410Z,34.90
2022-08-19T12:55:07.892Z,34.70
2022-08-19T12:58:51.074Z,34.80
2022-08-19T13:02:38.983Z,35.20
2022-08-19T13:06:23.759Z,35.20
2022-08-19T13:10:08.030Z,35.20
2022-08-19T13:13:53.414Z,35.40
2022-08-19T13:17:35.776Z,35.90
2022-08-19T13:21:17.760Z,36.10
2022-08-19T13:25:03.859Z,36.00
2022-08-19T13:29:04.996Z,36.30
2022-08-19T13:33:05.548Z,36.70
2022-08-19T13:36:47.513Z,37.10
2022-08-19T13:40:30.101Z,37.10
2022-08-19T13:44:11.985Z,36.40
2022-08-19T13:47:59.171Z,36.20
2022-08-19T13:51:43.599Z,36.40
2022-08-19T13:55:26.879Z,36.50
2022-08-19T13:59:08.933Z,36.70
2022-08-19T14:02:54.010Z,37.00
2022-08-19T14:06:36.259Z,36.90
2022-08-19T14:10:19.802Z,37.30
2022-08-19T14:14:01.624Z,37.40
2022-08-19T14:17:45.502Z,37.50
2022-08-19T14:21:27.359Z,37.30
2022-08-19T14:25:13.538Z,36.80
2022-08-19T14:28:58.701Z,36.20
2022-08-19T14:32:40.967Z,36.10
2022-08-19T14:36:22.891Z,36.00
2022-08-19T14:40:05.707Z,36.00
2022-08-19T14:43:50.797Z,35.90
2022-08-19T14:47:32.705Z,35.60
2022-08-19T14:51:15.260Z,35.20
2022-08-19T14:54:57.059Z,34.30
2022-08-19T14:58:43.652Z,33.50
2022-08-19T15:02:34.666Z,32.50
2022-08-19T15:06:17.277Z,31.80
2022-08-19T15:09:59.920Z,31.10
2022-08-19T15:13:42.387Z,30.60
2022-08-19T15:17:43.627Z,30.20
2022-08-19T15:21:28.107Z,30.10
2022-08-19T15:25:12.127Z,30.30
2022-08-19T15:28:53.930Z,30.40
2022-08-19T15:32:36.545Z,30.30
2022-08-19T15:36:18.930Z,29.80
2022-08-19T15:40:00.846Z,29.40
2022-08-19T15:43:42.995Z,29.00
2022-08-19T15:47:24.911Z,28.70
2022-08-19T15:51:06.718Z,28.60
2022-08-19T15:54:48.532Z,28.60
2022-08-19T15:58:49.003Z,28.60
2022-08-19T16:02:49.466Z,28.60
2022-08-19T16:06:36.162Z,28.50
2022-08-19T16:10:26.981Z,28.30
2022-08-19T16:14:09.802Z,28.10
2022-08-19T16:17:56.588Z,28.00
2022-08-19T16:21:41.584Z,27.90
2022-08-19T16:25:27.647Z,27.70
2022-08-19T16:29:12.162Z,27.50
2022-08-19T16:32:55.043Z,27.40
2022-08-19T16:36:36.960Z,27.20
2022-08-19T16:40:19.216Z,27.00
2022-08-19T16:44:01.044Z,26.90
2022-08-19T16:47:42.931Z,26.90
2022-08-19T16:51:25.150Z,26.80
2022-08-19T16:55:08.468Z,26.80
2022-08-19T16:58:50.557Z,26.70
2022-08-19T17:02:33.487Z,26.50
2022-08-19T17:06:20.478Z,26.40
2022-08-19T17:10:05.259Z,26.30
2022-08-19T17:13:49.394Z,26.20
2022-08-19T17:17:31.778Z,26.00
2022-08-19T17:21:13.739Z,25.80
2022-08-19T17:24:58.118Z,25.60
2022-08-19T17:28:40.411Z,25.50
2022-08-19T17:32:25.334Z,25.40
2022-08-19T17:36:08.165Z,25.30
2022-08-19T17:39:50.014Z,25.30
2022-08-19T17:43:37.933Z,25.20
2022-08-19T17:47:22.037Z,24.90
2022-08-19T17:51:31.999Z,24.80
2022-08-19T17:55:13.947Z,24.70
2022-08-19T17:59:01.643Z,24.60
2022-08-19T18:02:55.199Z,24.60
2022-08-19T18:06:37.903Z,24.50
2022-08-19T18:10:21.618Z,24.40
2022-08-19T18:14:03.552Z,24.20
2022-08-19T18:17:45.779Z,24.10
2022-08-19T18:21:31.982Z,24.00
2022-08-19T18:25:22.551Z,23.80
2022-08-19T18:29:04.454Z,23.80
2022-08-19T18:32:49.560Z,23.70
2022-08-19T18:36:52.913Z,23.60
2022-08-19T18:40:53.316Z,23.50
2022-08-19T18:44:59.653Z,23.40
2022-08-19T18:49:00.558Z,23.30
2022-08-19T18:52:42.436Z,23.10
2022-08-19T18:56:28.686Z,22.90
2022-08-19T19:00:11.295Z,22.80
2022-08-19T19:03:54.633Z,22.80
2022-08-19T19:07:36.469Z,22.80
2022-08-19T19:11:23.406Z,22.80
2022-08-19T19:15:06.152Z,22.80
2022-08-19T19:18:52.833Z,22.80
2022-08-19T19:22:34.777Z,22.70
2022-08-19T19:26:17.642Z,22.80
2022-08-19T19:29:59.482Z,22.80
2022-08-19T19:33:42.160Z,22.60
2022-08-19T19:37:24.019Z,22.60
2022-08-19T19:41:05.983Z,22.50
2022-08-19T19:44:50.577Z,22.50
2022-08-19T19:48:32.901Z,22.40
2022-08-19T19:52:14.714Z,22.30
2022-08-19T19:56:02.178Z,22.30
2022-08-19T19:59:44.861Z,22.20
2022-08-19T20:03:34.229Z,22.10
2022-08-19T20:07:16.044Z,22.10
2022-08-19T20:11:02.128Z,22.10
2022-08-19T20:14:43.895Z,22.00
2022-08-19T20:18:26.080Z,22.00
2022-08-19T20:22:08.187Z,21.90
2022-08-19T20:25:51.094Z,21.80
2022-08-19T20:29:38.713Z,21.80
2022-08-19T20:33:22.315Z,21.70
2022-08-19T20:37:04.769Z,21.50
2022-08-19T20:40:46.699Z,21.50
2022-08-19T20:44:28.511Z,21.30
2022-08-19T20:48:12.328Z,21.20
2022-08-19T20:51:55.019Z,21.10
2022-08-19T20:55:36.967Z,21.00
2022-08-19T20:59:20.466Z,20.80
2022-08-19T21:03:02.323Z,20.80
2022-08-19T21:06:45.497Z,20.70
2022-08-19T21:10:27.956Z,20.60
2022-08-19T21:14:10.064Z,20.40
2022-08-19T21:17:52.164Z,20.30
2022-08-19T21:21:34.986Z,20.30
2022-08-19T21:25:18.250Z,20.30
2022-08-19T21:29:00.052Z,20.20
2022-08-19T21:32:41.899Z,20.20
2022-08-19T21:36:23.757Z,20.10
2022-08-19T21:40:08.098Z,20.00
2022-08-19T21:43:49.961Z,20.00
2022-08-19T21:47:32.024Z,19.90
2022-08-19T21:51:13.987Z,19.90
2022-08-19T21:54:56.844Z,19.80
2022-08-19T21:58:38.794Z,19.80
2022-08-19T22:02:21.713Z,19.70
2022-08-19T22:06:04.016Z,19.70
2022-08-19T22:09:47.486Z,19.60
2022-08-19T22:13:39.926Z,19.60
2022-08-19T22:17:23.020Z,19.60
2022-08-19T22:21:11.410Z,19.50
2022-08-19T22:25:01.081Z,19.40
2022-08-19T22:28:43.784Z,19.40
2022-08-19T22:32:26.527Z,19.40
2022-08-19T22:36:10.575Z,19.40
2022-08-19T22:39:52.553Z,19.40
2022-08-19T22:43:34.536Z,19.30
2022-08-19T22:47:17.204Z,19.30
2022-08-19T22:51:18.055Z,19.30
2022-08-19T22:55:02.248Z,19.20
2022-08-19T22:58:45.136Z,19.20
2022-08-19T23:02:31.550Z,19.00
2022-08-19T23:06:14.489Z,19.00
2022-08-19T23:09:56.800Z,18.90
2022-08-19T23:13:41.257Z,18.80
2022-08-19T23:17:23.256Z,18.70
2022-08-19T23:21:09.865Z,18.60
2022-08-19T23:24:55.875Z,18.50
2022-08-19T23:28:56.747Z,18.40
2022-08-19T23:32:38.660Z,18.30
2022-08-19T23:36:22.523Z,18.20
2022-08-19T23:40:06.127Z,18.20
2022-08-19T23:43:48.092Z,18.10
2022-08-19T23:47:34.585Z,18.00
2022-08-19T23:51:17.587Z,17.90
2022-08-19T23:55:08.844Z,17.90
2022-08-19T23:58:50.664Z,17.80
